Time;durP1;ratioP1;P1;durP2;ratioP2;P2;SDS_P1;SDS_P2;PMS_P1;PMS_P2;Temp;Humidity;BMP_temperature;BMP_pressure;BME280_temperature;BME280_humidity;BME280_pressure;Samples;Min_cycle;Max_cycle;Signal;HPM_P1;HPM_P2
2022/02/12 00:00:56;;;;;;;6.97;4.12;;;;;;;3.64;87.21;98410.36;1699765;84;21009;-84
2022/02/12 00:03:24;;;;;;;5.10;3.62;;;;;;;3.66;86.75;98415.20;1695473;84;21045;-85
2022/02/12 00:05:51;;;;;;;5.45;3.80;;;;;;;3.69;87.51;98420.44;1693697;84;21041;-85
2022/02/12 00:08:18;;;;;;;5.55;4.03;;;;;;;3.71;88.19;98423.95;1689258;84;21073;-85
2022/02/12 00:10:44;;;;;;;5.20;3.90;;;;;;;3.74;87.84;98433.13;1693862;84;21443;-86
2022/02/12 00:13:11;;;;;;;6.67;4.30;;;;;;;3.79;87.15;98443.66;1688562;84;21013;-85
2022/02/12 00:15:40;;;;;;;6.05;3.80;;;;;;;3.79;87.12;98445.83;1697538;83;21458;-85
2022/02/12 00:18:09;;;;;;;7.25;4.58;;;;;;;3.79;86.73;98437.96;1697957;83;21084;-85
2022/02/12 00:20:36;;;;;;;6.17;4.65;;;;;;;3.79;86.23;98443.20;1699134;83;21000;-85
2022/02/12 00:23:03;;;;;;;7.12;4.50;;;;;;;3.74;85.54;98434.89;1700727;84;21072;-85
2022/02/12 00:25:30;;;;;;;7.42;4.80;;;;;;;3.72;84.94;98439.23;1707362;83;21040;-84
2022/02/12 00:27:56;;;;;;;6.58;4.35;;;;;;;3.64;84.64;98432.64;1701488;83;21088;-85
2022/02/12 00:30:23;;;;;;;6.67;4.65;;;;;;;3.58;84.11;98436.13;1699882;83;21052;-84
2022/02/12 00:32:49;;;;;;;8.75;5.33;;;;;;;3.54;84.22;98450.93;1699996;83;21045;-85
2022/02/12 00:35:16;;;;;;;8.95;6.17;;;;;;;3.39;83.62;98441.67;1699646;83;21438;-85
2022/02/12 00:37:43;;;;;;;8.93;6.05;;;;;;;3.36;83.39;98442.52;1698670;83;21021;-85
2022/02/12 00:40:11;;;;;;;10.05;6.72;;;;;;;3.33;83.62;98445.56;1699921;83;21029;-85
2022/02/12 00:42:37;;;;;;;9.55;6.95;;;;;;;3.30;83.87;98450.35;1698913;83;21013;-85
2022/02/12 00:45:05;;;;;;;12.58;7.85;;;;;;;3.27;83.30;98460.38;1700681;83;21107;-85
2022/02/12 00:47:34;;;;;;;15.45;8.88;;;;;;;3.21;83.26;98454.21;1698736;83;21458;-85
2022/02/12 00:50:02;;;;;;;12.63;8.75;;;;;;;3.17;82.86;98457.25;1699990;83;21052;-84
2022/02/12 00:52:29;;;;;;;13.10;8.75;;;;;;;3.12;82.74;98456.34;1699707;83;21040;-84
2022/02/12 00:54:55;;;;;;;14.38;9.58;;;;;;;2.99;83.80;98468.00;1698861;83;21490;-85
2022/02/12 00:57:22;;;;;;;12.05;7.70;;;;;;;2.96;84.02;98468.00;1697058;83;21052;-84
2022/02/12 00:59:48;;;;;;;14.55;9.25;;;;;;;2.86;84.69;98462.23;1699104;83;21008;-85
2022/02/12 01:02:15;;;;;;;15.98;9.10;;;;;;;2.86;83.99;98466.16;1700654;83;21021;-85
2022/02/12 01:04:41;;;;;;;13.58;8.88;;;;;;;2.83;83.91;98458.27;1698695;83;21028;-85
2022/02/12 01:07:08;;;;;;;14.23;8.78;;;;;;;2.77;84.27;98463.89;1697100;83;21164;-85
2022/02/12 01:09:37;;;;;;;14.43;8.20;;;;;;;2.73;84.71;98466.45;1703387;83;21135;-84
2022/02/12 01:12:05;;;;;;;13.75;8.45;;;;;;;2.71;84.85;98468.19;1699009;83;21061;-84
2022/02/12 01:14:31;;;;;;;16.52;9.93;;;;;;;2.68;84.57;98474.27;1695956;83;21502;-84
2022/02/12 01:16:58;;;;;;;14.25;8.90;;;;;;;2.68;84.18;98478.20;1698620;83;21036;-83
2022/02/12 01:19:24;;;;;;;13.90;8.95;;;;;;;2.67;83.91;98471.22;1702491;83;21048;-83
2022/02/12 01:21:51;;;;;;;16.00;9.53;;;;;;;2.70;83.54;98483.45;1699460;83;21482;-83
2022/02/12 01:24:18;;;;;;;16.77;10.28;;;;;;;2.67;84.13;98486.03;1699069;83;21009;-84
2022/02/12 01:26:44;;;;;;;16.25;9.50;;;;;;;2.67;83.36;98490.84;1700753;83;21033;-84
2022/02/12 01:29:11;;;;;;;13.53;9.15;;;;;;;2.64;83.00;98502.16;1698872;83;21088;-84
2022/02/12 01:31:37;;;;;;;15.10;10.15;;;;;;;2.56;82.76;98497.27;1701491;83;21029;-83
2022/02/12 01:34:03;;;;;;;14.10;9.13;;;;;;;2.60;82.52;98511.25;1700190;83;21057;-84
2022/02/12 01:36:30;;;;;;;16.32;9.68;;;;;;;2.61;82.44;98510.38;1700998;83;21139;-83
2022/02/12 01:38:56;;;;;;;15.58;8.75;;;;;;;2.65;82.48;98510.88;1697665;83;21013;-84
2022/02/12 01:41:23;;;;;;;15.10;8.83;;;;;;;2.63;82.13;98521.77;1699546;83;21542;-84
2022/02/12 01:43:50;;;;;;;17.05;9.40;;;;;;;2.63;82.12;98527.86;1701896;83;20985;-84
2022/02/12 01:46:17;;;;;;;14.98;8.48;;;;;;;2.66;82.21;98535.31;1699743;83;21096;-84
2022/02/12 01:48:44;;;;;;;16.07;8.98;;;;;;;2.64;81.74;98532.67;1701951;83;20993;-84
2022/02/12 01:51:11;;;;;;;13.15;7.80;;;;;;;2.62;81.50;98526.56;1699962;83;21032;-84
2022/02/12 01:53:38;;;;;;;14.40;8.18;;;;;;;2.58;81.08;98529.55;1699586;83;21462;-84
2022/02/12 01:56:04;;;;;;;16.27;9.33;;;;;;;2.59;81.86;98535.67;1697633;83;21041;-84
2022/02/12 01:58:31;;;;;;;17.20;9.33;;;;;;;2.53;81.70;98539.09;1700939;83;21438;-84
2022/02/12 02:00:58;;;;;;;17.37;8.53;;;;;;;2.52;81.92;98540.41;1700079;83;21025;-84
2022/02/12 02:03:24;;;;;;;15.65;9.15;;;;;;;2.48;81.32;98552.55;1700022;83;21009;-84
2022/02/12 02:05:51;;;;;;;15.20;9.00;;;;;;;2.41;81.30;98544.19;1698889;83;21478;-84
2022/02/12 02:08:17;;;;;;;16.23;8.88;;;;;;;2.35;81.13;98556.75;1698968;83;21112;-84
2022/02/12 02:10:45;;;;;;;15.35;8.20;;;;;;;2.26;80.33;98552.71;1699512;83;21554;-84
2022/02/12 02:13:27;;;;;;;11.57;6.67;;;;;;;2.17;80.27;98566.55;1699726;83;22297;-84
2022/02/12 02:15:54;;;;;;;12.28;7.03;;;;;;;2.09;79.82;98566.45;1707641;82;20993;-84
2022/02/12 02:18:21;;;;;;;12.93;7.50;;;;;;;2.00;79.18;98574.16;1713887;82;21012;-83
2022/02/12 02:20:47;;;;;;;11.75;6.58;;;;;;;1.92;79.05;98575.36;1718051;82;21398;-84
2022/02/12 02:23:14;;;;;;;10.63;6.62;;;;;;;1.84;78.88;98587.02;1714270;82;21056;-85
2022/02/12 02:25:40;;;;;;;8.13;5.45;;;;;;;1.76;78.56;98593.84;1715870;82;21027;-85
2022/02/12 02:28:07;;;;;;;9.75;5.72;;;;;;;1.67;78.18;98588.91;1712649;82;21469;-84
2022/02/12 02:30:34;;;;;;;7.53;5.03;;;;;;;1.69;78.46;98599.40;1719849;82;20965;-84
2022/02/12 02:33:03;;;;;;;8.98;5.37;;;;;;;1.62;77.12;98599.72;1718346;82;21036;-84
2022/02/12 02:35:29;;;;;;;8.08;4.30;;;;;;;1.60;77.22;98613.62;1718181;82;21000;-84
2022/02/12 02:37:59;;;;;;;7.83;4.58;;;;;;;1.59;77.13;98619.29;1690628;84;21128;-85
2022/02/12 02:40:26;;;;;;;6.83;4.22;;;;;;;1.56;76.95;98626.66;1692495;84;21462;-85
2022/02/12 02:42:52;;;;;;;8.50;4.60;;;;;;;1.52;76.71;98630.47;1694544;84;21044;-84
2022/02/12 02:45:19;;;;;;;6.78;3.90;;;;;;;1.57;76.86;98625.79;1690947;84;20998;-84
2022/02/12 02:47:46;;;;;;;6.97;3.98;;;;;;;1.54;75.81;98629.64;1716273;82;21434;-84
2022/02/12 02:56:00;;;;;;;6.08;3.70;;;;;;;1.56;75.56;98649.27;1715357;82;21398;-83
2022/02/12 02:58:41;;;;;;;5.00;2.92;;;;;;;1.53;75.49;98646.63;1715768;82;21100;-82
2022/02/12 03:01:18;;;;;;;5.03;3.33;;;;;;;1.45;75.28;98657.80;1716704;82;21517;-83
2022/02/12 03:03:48;;;;;;;7.22;3.77;;;;;;;1.43;75.55;98659.52;1709594;82;21458;-83
2022/02/12 03:06:17;;;;;;;6.33;3.40;;;;;;;1.44;75.29;98667.80;1713658;82;21000;-82
2022/02/12 03:08:44;;;;;;;5.25;3.60;;;;;;;1.44;75.20;98671.72;1714574;82;21067;-82
2022/02/12 03:11:13;;;;;;;4.08;2.92;;;;;;;1.41;75.45;98666.87;1715089;82;21020;-83
2022/02/12 03:13:42;;;;;;;3.85;2.85;;;;;;;1.42;75.31;98672.10;1712887;82;21429;-82
2022/02/12 03:16:09;;;;;;;4.22;2.58;;;;;;;1.39;74.72;98677.70;1708461;82;21021;-83
2022/02/12 03:18:38;;;;;;;5.22;3.00;;;;;;;1.37;74.32;98677.67;1698616;83;21555;-83
2022/02/12 03:21:05;;;;;;;4.75;2.87;;;;;;;1.41;74.59;98686.02;1698613;83;21036;-83
2022/02/12 03:23:33;;;;;;;4.40;3.05;;;;;;;1.40;74.28;98684.27;1698714;84;21065;-84
2022/02/12 03:26:00;;;;;;;4.35;2.65;;;;;;;1.39;73.87;98693.38;1699286;83;21016;-84
2022/02/12 03:28:26;;;;;;;4.67;2.65;;;;;;;1.42;74.00;98700.84;1699169;83;21043;-83
2022/02/12 03:30:52;;;;;;;3.77;1.95;;;;;;;1.40;73.25;98697.33;1698703;83;21005;-84
2022/02/12 03:33:19;;;;;;;5.30;2.45;;;;;;;1.37;73.15;98684.20;1696331;83;21100;-83
2022/02/12 03:35:46;;;;;;;4.60;2.33;;;;;;;1.40;72.93;98697.74;1698176;83;21067;-83
2022/02/12 03:38:17;;;;;;;3.95;2.22;;;;;;;1.40;72.82;98704.27;1699515;83;21098;-83
2022/02/12 03:40:47;;;;;;;2.45;1.75;;;;;;;1.37;72.62;98714.68;1695995;83;21088;-83
2022/02/12 03:43:15;;;;;;;4.95;2.75;;;;;;;1.34;72.36;98719.83;1698040;83;21430;-84
2022/02/12 03:45:44;;;;;;;4.42;2.70;;;;;;;1.36;72.36;98720.31;1699471;83;21467;-83
2022/02/12 03:48:11;;;;;;;3.55;2.47;;;;;;;1.37;72.43;98719.91;1698949;83;21033;-82
2022/02/12 03:50:39;;;;;;;3.67;2.27;;;;;;;1.34;72.68;98731.59;1698284;83;21071;-82
2022/02/12 03:53:07;;;;;;;3.47;2.50;;;;;;;1.33;72.64;98749.01;1697208;83;21024;-82
2022/02/12 03:55:37;;;;;;;2.37;1.60;;;;;;;1.30;72.42;98751.55;1700628;83;21033;-81
2022/02/12 03:58:11;;;;;;;4.70;2.67;;;;;;;1.25;72.28;98763.19;1699081;83;21056;-82
2022/02/12 04:00:40;;;;;;;3.33;2.17;;;;;;;1.27;72.51;98765.84;1698870;83;21181;-82
2022/02/12 04:03:07;;;;;;;3.50;2.02;;;;;;;1.26;72.05;98773.22;1699216;83;21012;-83
2022/02/12 04:05:35;;;;;;;4.47;2.35;;;;;;;1.24;71.97;98779.71;1696949;83;21056;-82
2022/02/12 04:08:03;;;;;;;4.72;2.55;;;;;;;1.26;71.85;98771.92;1698454;83;21470;-82
2022/02/12 04:10:30;;;;;;;3.40;2.20;;;;;;;1.24;71.88;98775.80;1700955;83;21438;-82
2022/02/12 04:12:59;;;;;;;4.03;2.40;;;;;;;1.18;71.85;98783.52;1699678;83;21036;-82
2022/02/12 04:15:26;;;;;;;2.67;2.02;;;;;;;1.18;71.79;98789.63;1699598;82;21008;-82
2022/02/12 04:17:53;;;;;;;4.05;2.70;;;;;;;1.16;72.26;98794.36;1717234;82;21068;-82
2022/02/12 04:20:22;;;;;;;3.67;2.17;;;;;;;1.15;72.06;98796.08;1714969;81;21438;-82
2022/02/12 04:22:49;;;;;;;4.42;2.37;;;;;;;1.12;72.20;98807.75;1713666;82;20989;-82
2022/02/12 04:25:19;;;;;;;3.30;2.02;;;;;;;1.13;72.23;98799.06;1718486;82;21533;-83
2022/02/12 04:27:46;;;;;;;3.30;2.35;;;;;;;1.11;72.29;98799.88;1714915;82;21039;-82
2022/02/12 04:30:14;;;;;;;4.28;2.50;;;;;;;1.10;72.18;98804.23;1718318;82;21426;-82
2022/02/12 04:32:43;;;;;;;5.12;2.55;;;;;;;1.12;72.33;98805.58;1714621;82;21041;-83
2022/02/12 04:35:13;;;;;;;4.03;2.60;;;;;;;1.13;72.16;98806.03;1716652;82;21083;-83
2022/02/12 04:37:41;;;;;;;3.92;2.52;;;;;;;1.07;72.01;98811.13;1715567;82;21051;-83
2022/02/12 04:40:09;;;;;;;3.85;2.37;;;;;;;1.11;72.13;98812.93;1715039;82;21000;-83
2022/02/12 04:42:36;;;;;;;6.45;2.55;;;;;;;1.07;72.11;98814.60;1718153;82;21032;-83
2022/02/12 04:45:04;;;;;;;4.00;2.60;;;;;;;1.02;72.11;98822.76;1693145;84;21408;-83
2022/02/12 04:47:31;;;;;;;4.35;2.42;;;;;;;0.98;72.24;98825.73;1688294;84;21603;-83
2022/02/12 04:49:58;;;;;;;3.72;2.10;;;;;;;0.89;72.05;98821.20;1693903;84;21029;-83
2022/02/12 04:52:26;;;;;;;4.47;2.40;;;;;;;0.86;72.14;98830.66;1717847;82;21059;-83
2022/02/12 04:54:52;;;;;;;4.45;2.67;;;;;;;0.81;72.13;98834.89;1715197;82;21020;-83
2022/02/12 04:57:19;;;;;;;3.50;2.45;;;;;;;0.77;72.35;98827.42;1714440;82;21064;-83
2022/02/12 04:59:46;;;;;;;3.90;2.58;;;;;;;0.76;72.47;98829.58;1712861;82;21082;-82
2022/02/12 05:02:12;;;;;;;4.58;2.52;;;;;;;0.70;72.53;98832.05;1716603;82;21024;-81
2022/02/12 05:04:39;;;;;;;4.37;2.70;;;;;;;0.64;72.73;98840.19;1711368;82;21051;-81
2022/02/12 05:07:06;;;;;;;3.65;2.67;;;;;;;0.60;72.78;98834.44;1715158;82;21533;-81
2022/02/12 05:09:37;;;;;;;4.65;2.50;;;;;;;0.56;72.90;98841.73;1716229;82;21012;-81
2022/02/12 05:12:06;;;;;;;6.03;3.22;;;;;;;0.49;73.23;98832.86;1714329;82;21028;-82
2022/02/12 05:14:33;;;;;;;4.50;2.90;;;;;;;0.49;73.21;98838.49;1714597;82;21028;-82
2022/02/12 05:17:02;;;;;;;4.28;2.95;;;;;;;0.45;73.21;98837.54;1704687;82;21017;-82
2022/02/12 05:19:29;;;;;;;4.70;2.95;;;;;;;0.39;73.62;98834.79;1699016;83;21430;-83
2022/02/12 05:21:56;;;;;;;4.50;3.10;;;;;;;0.34;73.79;98837.70;1701786;83;21609;-83
2022/02/12 05:24:23;;;;;;;6.50;3.55;;;;;;;0.29;74.00;98841.92;1699418;83;21393;-83
2022/02/12 05:26:50;;;;;;;4.65;3.05;;;;;;;0.27;74.06;98845.79;1699548;83;20981;-83
2022/02/12 05:29:18;;;;;;;8.25;4.90;;;;;;;0.25;74.05;98853.56;1698492;83;21048;-84
2022/02/12 05:31:45;;;;;;;6.03;3.40;;;;;;;0.22;74.13;98856.11;1699180;83;21057;-83
2022/02/12 05:34:11;;;;;;;4.87;3.20;;;;;;;0.19;74.23;98848.20;1698902;83;21048;-83
2022/02/12 05:36:38;;;;;;;5.78;3.72;;;;;;;0.13;74.37;98870.20;1699421;83;21450;-83
2022/02/12 05:39:05;;;;;;;6.83;3.80;;;;;;;0.13;74.07;98865.00;1698754;83;21644;-83
2022/02/12 05:41:32;;;;;;;7.10;3.95;;;;;;;0.11;74.18;98880.59;1700096;83;21455;-82
2022/02/12 05:43:58;;;;;;;6.67;3.75;;;;;;;0.08;74.68;98878.33;1699560;83;21036;-82
2022/02/12 05:46:25;;;;;;;6.62;4.03;;;;;;;0.04;74.71;98881.25;1698981;83;21490;-83
2022/02/12 05:48:51;;;;;;;5.85;3.75;;;;;;;0.06;74.57;98886.51;1699398;83;21048;-83
2022/02/12 05:51:18;;;;;;;6.22;3.75;;;;;;;0.02;74.52;98889.87;1698853;83;21088;-83
2022/02/12 05:53:45;;;;;;;5.72;3.67;;;;;;;-0.02;74.58;98884.59;1698131;83;21411;-84
2022/02/12 05:56:11;;;;;;;7.62;4.00;;;;;;;0.01;74.54;98883.79;1699608;83;21024;-83
2022/02/12 05:58:38;;;;;;;6.45;3.75;;;;;;;-0.01;74.37;98886.76;1699365;83;21001;-84
2022/02/12 06:01:04;;;;;;;6.58;4.00;;;;;;;-0.01;74.24;98888.95;1699412;83;21631;-84
2022/02/12 06:03:31;;;;;;;6.47;4.47;;;;;;;0.01;74.13;98889.41;1699634;83;21036;-84
2022/02/12 06:05:58;;;;;;;7.05;3.80;;;;;;;0.00;74.05;98902.88;1699413;83;21020;-83
2022/02/12 06:08:24;;;;;;;6.30;4.30;;;;;;;-0.03;73.92;98915.81;1699317;83;21029;-83
2022/02/12 06:10:51;;;;;;;7.58;3.75;;;;;;;0.02;73.96;98917.23;1700333;83;21490;-83
2022/02/12 06:13:18;;;;;;;6.95;3.47;;;;;;;0.01;73.99;98921.98;1698840;83;21076;-83
2022/02/12 06:15:44;;;;;;;6.28;3.67;;;;;;;0.01;73.96;98915.47;1702005;83;21013;-83
2022/02/12 06:18:11;;;;;;;4.78;3.27;;;;;;;0.02;73.33;98931.56;1703199;83;21474;-84
2022/02/12 06:20:37;;;;;;;5.45;3.35;;;;;;;0.01;73.62;98926.80;1699399;83;21028;-84
2022/02/12 06:23:04;;;;;;;7.30;4.00;;;;;;;0.02;73.38;98933.77;1700484;83;21073;-84
2022/02/12 06:25:30;;;;;;;7.90;3.25;;;;;;;0.05;73.37;98935.17;1702705;83;21396;-83
2022/02/12 06:27:58;;;;;;;9.30;3.72;;;;;;;0.04;73.41;98935.12;1700199;83;21045;-82
2022/02/12 06:30:24;;;;;;;5.25;3.10;;;;;;;0.07;73.02;98954.33;1697304;83;21020;-84
2022/02/12 06:32:51;;;;;;;4.47;3.33;;;;;;;0.11;72.78;98935.73;1698933;83;21100;-82
2022/02/12 06:35:18;;;;;;;5.62;3.50;;;;;;;0.10;72.55;98943.09;1699944;83;21469;-83
2022/02/12 06:37:44;;;;;;;5.08;3.40;;;;;;;0.11;72.24;98939.23;1699900;83;20961;-84
2022/02/12 06:40:13;;;;;;;7.92;3.33;;;;;;;0.14;72.44;98955.38;1702519;83;21040;-84
2022/02/12 06:42:40;;;;;;;5.15;3.17;;;;;;;0.13;72.44;98953.62;1699707;83;20989;-84
2022/02/12 06:45:08;;;;;;;6.40;3.10;;;;;;;0.11;72.12;98966.61;1699545;83;21104;-83
2022/02/12 06:47:37;;;;;;;6.47;3.92;;;;;;;0.13;71.94;98949.72;1698061;83;21020;-84
2022/02/12 06:50:04;;;;;;;7.37;3.95;;;;;;;0.14;71.97;98963.20;1703130;83;21546;-85
2022/02/12 06:52:31;;;;;;;5.62;3.25;;;;;;;0.16;72.04;98965.42;1700845;83;21596;-85
2022/02/12 06:54:58;;;;;;;5.35;3.58;;;;;;;0.13;71.83;98974.04;1701584;83;21053;-85
2022/02/12 06:57:26;;;;;;;5.28;3.22;;;;;;;0.15;71.88;98983.22;1701641;83;21028;-85
2022/02/12 06:59:55;;;;;;;6.90;3.30;;;;;;;0.15;71.72;98997.55;1699633;83;20994;-83
2022/02/12 07:02:22;;;;;;;5.10;3.37;;;;;;;0.15;72.08;98987.53;1699886;83;20977;-82
2022/02/12 07:04:49;;;;;;;6.78;3.17;;;;;;;0.15;72.17;98994.05;1697733;83;21049;-82
2022/02/12 07:07:16;;;;;;;5.30;3.25;;;;;;;0.15;71.57;99001.46;1700461;83;21052;-82
2022/02/12 07:09:42;;;;;;;5.97;3.47;;;;;;;0.19;71.54;99008.94;1701857;83;21014;-82
2022/02/12 07:12:09;;;;;;;7.60;3.83;;;;;;;0.22;71.57;99004.72;1699634;83;21049;-82
2022/02/12 07:14:36;;;;;;;5.05;3.12;;;;;;;0.28;71.75;99009.65;1699953;83;21060;-83
2022/02/12 07:17:04;;;;;;;8.50;3.92;;;;;;;0.27;71.20;99015.27;1704830;82;21083;-83
2022/02/12 07:19:32;;;;;;;8.55;3.83;;;;;;;0.32;71.01;99020.59;1714687;82;21028;-82
2022/02/12 07:21:58;;;;;;;5.95;3.25;;;;;;;0.38;70.80;99024.70;1720818;82;21068;-81
2022/02/12 07:24:25;;;;;;;5.15;2.55;;;;;;;0.40;71.04;99039.97;1713172;82;21556;-82
2022/02/12 07:26:52;;;;;;;7.60;4.25;;;;;;;0.44;70.37;99017.45;1722723;82;21012;-82
2022/02/12 07:29:19;;;;;;;8.93;4.40;;;;;;;0.53;70.86;99037.27;1714257;82;21071;-81
2022/02/12 07:31:45;;;;;;;10.48;4.12;;;;;;;0.59;70.46;99037.47;1720690;82;21015;-81
2022/02/12 07:34:19;;;;;;;6.30;3.90;;;;;;;0.64;69.86;99041.08;1691887;84;21135;-81
2022/02/12 07:36:40;;;;;;;6.53;3.40;;;;;;;0.74;69.81;99034.78;1689995;84;21053;-81
2022/02/12 07:39:07;;;;;;;5.58;2.90;;;;;;;0.79;69.74;99046.25;1715342;82;21500;-82
2022/02/12 07:41:35;;;;;;;5.67;3.00;;;;;;;0.83;68.48;99049.38;1714613;82;21052;-81
2022/02/12 07:44:02;;;;;;;5.22;3.35;;;;;;;0.88;69.00;99047.77;1717863;82;21088;-81
2022/02/12 07:46:29;;;;;;;6.58;3.55;;;;;;;0.91;68.43;99048.28;1696566;82;21016;-82
2022/02/12 07:48:56;;;;;;;5.53;2.92;;;;;;;0.91;67.55;99054.39;1716397;82;21039;-82
2022/02/12 07:51:23;;;;;;;6.65;3.02;;;;;;;0.94;67.30;99061.42;1711662;82;20992;-82
2022/02/12 07:53:49;;;;;;;5.58;3.27;;;;;;;0.99;67.38;99061.13;1716390;82;21545;-82
2022/02/12 07:56:16;;;;;;;6.28;3.40;;;;;;;1.04;67.90;99063.42;1713354;82;21042;-82
2022/02/12 07:58:45;;;;;;;5.33;3.27;;;;;;;1.07;67.24;99073.06;1713921;82;21044;-83
2022/02/12 08:01:14;;;;;;;6.08;3.17;;;;;;;1.07;67.11;99066.54;1717997;82;21058;-83
2022/02/12 08:03:41;;;;;;;7.65;3.45;;;;;;;1.08;66.89;99077.88;1714480;82;21099;-83
2022/02/12 08:07:27;;;;;;;19.20;9.10;;;;;;;1.12;67.59;99071.45;1718546;82;21481;-83
2022/02/12 08:08:36;;;;;;;4.83;2.80;;;;;;;1.14;67.71;99088.06;1712917;82;21048;-84
2022/02/12 08:13:47;;;;;;;;;;;;;;;1.24;66.98;99085.25;1719560;82;21489;-83
2022/02/12 08:16:13;;;;;;;5.95;2.95;;;;;;;1.28;66.89;99080.98;1717757;82;20405;-84
2022/02/12 08:18:40;;;;;;;5.53;2.80;;;;;;;1.35;66.06;99072.47;1717254;82;21064;-83
2022/02/12 08:21:06;;;;;;;5.47;3.42;;;;;;;1.39;65.52;99099.14;1719055;82;21445;-84
2022/02/12 08:23:33;;;;;;;5.90;2.85;;;;;;;1.47;65.64;99077.13;1696107;82;21055;-83
2022/02/12 08:26:00;;;;;;;5.50;3.10;;;;;;;1.55;65.05;99090.37;1715906;82;21422;-83
2022/02/12 08:28:28;;;;;;;4.72;3.45;;;;;;;1.60;65.16;99079.61;1721083;82;21051;-83
2022/02/12 08:30:57;;;;;;;5.75;2.90;;;;;;;1.69;65.83;99081.14;1736974;82;21007;-83
2022/02/12 08:33:23;;;;;;;4.87;2.98;;;;;;;1.81;65.33;99091.00;1756569;81;21076;-82
2022/02/12 08:35:50;;;;;;;4.37;3.12;;;;;;;1.89;65.53;99093.79;1756313;82;21386;-82
2022/02/12 08:38:17;;;;;;;5.55;2.50;;;;;;;1.97;64.19;99114.47;1757006;81;20996;-82
2022/02/12 08:40:43;;;;;;;5.90;3.35;;;;;;;2.00;63.62;99107.13;1756953;81;20972;-83
2022/02/12 08:43:12;;;;;;;5.25;3.33;;;;;;;2.06;63.64;99112.48;1730451;82;21023;-81
2022/02/12 08:45:38;;;;;;;5.22;2.98;;;;;;;2.13;63.79;99116.13;1724088;83;20973;-83
2022/02/12 08:48:09;;;;;;;4.50;2.77;;;;;;;2.22;63.91;99111.52;1726413;83;21009;-83
2022/02/12 08:50:37;;;;;;;5.28;3.08;;;;;;;2.26;62.39;99119.89;1711802;83;20989;-82
2022/02/12 08:53:04;;;;;;;7.25;3.37;;;;;;;2.31;63.04;99114.75;1693606;83;21055;-82
2022/02/12 08:55:31;;;;;;;5.83;2.47;;;;;;;2.34;62.54;99122.67;1715041;83;21438;-83
2022/02/12 08:57:57;;;;;;;5.90;2.80;;;;;;;2.35;60.50;99127.05;1714823;83;21048;-83
2022/02/12 09:00:24;;;;;;;4.20;2.85;;;;;;;2.41;62.65;99131.10;1694340;83;21025;-82
2022/02/12 09:02:50;;;;;;;3.92;2.83;;;;;;;2.47;60.96;99131.67;1693349;85;22335;-83
2022/02/12 09:05:17;;;;;;;5.97;2.90;;;;;;;2.44;60.20;99144.67;1693389;85;21040;-83
2022/02/12 09:07:43;;;;;;;4.70;2.40;;;;;;;2.50;61.32;99150.92;1693325;85;20997;-83
2022/02/12 09:10:10;;;;;;;5.90;3.00;;;;;;;2.57;61.04;99151.95;1693307;85;21036;-84
2022/02/12 09:12:37;;;;;;;4.67;2.70;;;;;;;2.61;60.04;99150.27;1693402;85;21036;-83
2022/02/12 09:15:04;;;;;;;3.55;2.47;;;;;;;2.59;59.72;99153.30;1693157;85;21024;-83
2022/02/12 09:17:30;;;;;;;3.85;2.42;;;;;;;2.58;60.07;99150.23;1693311;84;21036;-83
2022/02/12 09:19:58;;;;;;;3.55;2.20;;;;;;;2.67;60.58;99156.97;1718719;83;21438;-83
2022/02/12 09:22:26;;;;;;;5.00;2.70;;;;;;;2.77;58.73;99147.55;1723561;83;21386;-83
2022/02/12 09:24:52;;;;;;;6.20;2.58;;;;;;;2.82;59.99;99157.70;1723579;83;21021;-83
2022/02/12 09:27:20;;;;;;;4.85;2.83;;;;;;;2.87;58.96;99154.74;1723635;83;20997;-83
2022/02/12 09:29:48;;;;;;;3.85;2.62;;;;;;;2.97;58.53;99165.41;1705162;83;21024;-83
2022/02/12 09:32:15;;;;;;;4.28;2.17;;;;;;;3.01;57.89;99165.52;1723712;83;20984;-83
2022/02/12 09:34:44;;;;;;;3.60;2.33;;;;;;;3.06;55.79;99162.11;1723766;83;21040;-83
2022/02/12 09:37:11;;;;;;;2.98;2.25;;;;;;;3.04;56.22;99159.01;1723691;83;21016;-82
2022/02/12 09:39:37;;;;;;;3.08;2.70;;;;;;;3.06;55.97;99155.56;1723147;83;21437;-83
2022/02/12 09:42:05;;;;;;;4.92;2.62;;;;;;;3.05;57.03;99162.52;1725218;83;21059;-83
2022/02/12 09:44:31;;;;;;;3.77;2.17;;;;;;;3.10;56.62;99155.64;1726659;83;21039;-84
2022/02/12 09:47:15;;;;;;;5.22;2.35;;;;;;;3.19;56.21;99167.16;1719532;83;21063;-83
2022/02/12 09:49:42;;;;;;;3.67;2.25;;;;;;;3.25;55.45;99161.61;1693091;84;21096;-83
2022/02/12 09:52:11;;;;;;;4.03;2.30;;;;;;;3.31;54.62;99163.44;1693580;85;21028;-83
2022/02/12 09:54:40;;;;;;;3.75;2.10;;;;;;;3.33;54.46;99169.61;1693433;85;21048;-83
2022/02/12 09:57:07;;;;;;;3.30;2.30;;;;;;;3.43;55.65;99162.78;1700760;83;21098;-82
2022/02/12 09:59:34;;;;;;;2.92;2.00;;;;;;;3.49;54.14;99162.03;1715544;83;20985;-82
2022/02/12 10:02:00;;;;;;;6.22;2.33;;;;;;;3.51;53.91;99158.98;1693470;85;20985;-83
2022/02/12 10:04:29;;;;;;;3.35;2.33;;;;;;;3.56;54.13;99159.95;1693250;85;21051;-84
2022/02/12 10:06:55;;;;;;;3.17;2.08;;;;;;;3.61;54.59;99145.63;1693405;85;21438;-83
2022/02/12 10:09:22;;;;;;;3.15;2.20;;;;;;;3.67;54.50;99158.84;1693514;85;21044;-83
2022/02/12 10:11:51;;;;;;;3.55;2.10;;;;;;;3.76;53.49;99166.86;1693392;85;21469;-83
2022/02/12 10:14:23;;;;;;;4.28;1.90;;;;;;;3.76;52.91;99169.90;1693358;85;21067;-83
2022/02/12 10:17:00;;;;;;;4.42;1.90;;;;;;;3.78;53.28;99173.00;1712617;83;21477;-82
2022/02/12 10:19:38;;;;;;;4.30;2.52;;;;;;;3.92;53.42;99157.52;1694643;85;21080;-82
2022/02/12 10:22:18;;;;;;;4.25;2.20;;;;;;;4.12;54.42;99159.98;1696648;85;21463;-82
2022/02/12 10:24:54;;;;;;;4.12;1.90;;;;;;;4.27;50.82;99177.72;1706858;83;20993;-82
2022/02/12 10:27:25;;;;;;;3.45;1.98;;;;;;;4.27;51.78;99159.34;1708322;84;20981;-82
2022/02/12 10:29:54;;;;;;;3.77;2.62;;;;;;;4.35;51.86;99158.59;1708463;84;21008;-82
2022/02/12 10:32:24;;;;;;;5.42;2.30;;;;;;;4.50;51.33;99159.67;1708354;84;21024;-82
2022/02/12 10:34:56;;;;;;;3.67;2.08;;;;;;;4.78;51.69;99156.53;1708345;84;21284;-81
2022/02/12 10:37:23;;;;;;;7.10;2.72;;;;;;;5.12;51.20;99161.73;1707864;84;21037;-82
2022/02/12 10:39:59;;;;;;;6.42;2.72;;;;;;;5.22;50.03;99152.64;1708208;84;21068;-82
2022/02/12 10:42:29;;;;;;;3.65;2.25;;;;;;;5.15;49.80;99165.72;1708420;84;20994;-81
2022/02/12 10:44:56;;;;;;;4.72;2.42;;;;;;;5.12;47.89;99177.50;1708484;83;21056;-82
2022/02/12 10:47:24;;;;;;;9.70;5.58;;;;;;;5.00;45.93;99165.55;1708273;84;21092;-82
2022/02/12 10:49:52;;;;;;;9.48;4.75;;;;;;;5.08;47.81;99166.53;1708550;84;21048;-82
2022/02/12 10:52:20;;;;;;;5.78;3.00;;;;;;;5.20;48.73;99164.48;1708424;84;20977;-82
2022/02/12 10:54:50;;;;;;;4.25;2.50;;;;;;;5.28;48.30;99159.30;1708215;84;21120;-81
2022/02/12 10:57:22;;;;;;;5.08;1.65;;;;;;;5.25;45.91;99175.92;1708464;83;21076;-81
2022/02/12 10:59:48;;;;;;;4.03;1.70;;;;;;;5.11;45.32;99161.74;1694795;84;21000;-83
2022/02/12 11:02:19;;;;;;;3.35;1.77;;;;;;;5.77;45.82;99163.28;1685608;84;21008;-82
2022/02/12 11:04:52;;;;;;;3.65;1.80;;;;;;;7.18;46.77;99161.06;1690523;84;21011;-82
2022/02/12 11:07:18;;;;;;;3.75;2.20;;;;;;;7.13;40.06;99157.97;1691413;84;20965;-82
2022/02/12 11:09:46;;;;;;;4.60;2.00;;;;;;;6.98;40.18;99160.09;1684071;84;21461;-81
2022/02/12 11:12:15;;;;;;;4.60;2.42;;;;;;;6.79;43.51;99158.27;1689058;84;21103;-82
2022/02/12 11:14:47;;;;;;;2.62;1.80;;;;;;;6.78;45.23;99163.09;1688448;84;21048;-83
2022/02/12 11:17:18;;;;;;;3.37;2.00;;;;;;;6.94;44.85;99166.69;1697648;84;21083;-82
2022/02/12 11:19:48;;;;;;;5.03;1.82;;;;;;;6.78;41.50;99171.00;1701963;83;21088;-82
2022/02/12 11:22:16;;;;;;;2.95;1.40;;;;;;;7.06;41.88;99169.81;1686162;84;21532;-82
2022/02/12 11:24:46;;;;;;;3.02;1.95;;;;;;;7.65;41.35;99164.22;1688663;84;21458;-82
2022/02/12 11:27:29;;;;;;;3.40;1.98;;;;;;;7.40;41.43;99165.49;1684471;84;20980;-83
2022/02/12 11:29:57;;;;;;;2.65;2.00;;;;;;;7.15;40.77;99167.20;1693296;84;21035;-84
2022/02/12 11:32:26;;;;;;;6.45;2.90;;;;;;;7.04;42.27;99172.43;1664729;84;21036;-83
2022/02/12 11:35:11;;;;;;;6.00;2.87;;;;;;;6.71;42.61;99172.29;1684913;84;21059;-82
2022/02/12 11:37:39;;;;;;;3.30;2.00;;;;;;;6.43;42.71;99166.86;1688690;84;21012;-83
2022/02/12 11:40:26;;;;;;;7.45;2.27;;;;;;;6.25;43.65;99172.89;1691928;84;21050;-84
2022/02/12 11:43:09;;;;;;;5.53;2.20;;;;;;;5.99;43.11;99168.71;1689154;84;20995;-84
2022/02/12 11:45:46;;;;;;;7.05;2.35;;;;;;;6.10;45.02;99167.06;1688158;84;21458;-83
2022/02/12 11:48:30;;;;;;;4.10;2.05;;;;;;;6.58;43.95;99173.09;1690411;84;21458;-84
2022/02/12 11:51:10;;;;;;;3.42;2.02;;;;;;;6.51;43.08;99174.80;1689332;84;21067;-83
2022/02/12 11:53:46;;;;;;;5.50;3.65;;;;;;;8.43;43.61;99159.37;1685768;84;21098;-84